createdAt,value
2023-04-30T00:00:13.555Z,9.27
2023-04-30T00:02:43.171Z,8.73
2023-04-30T00:05:10.695Z,9.93
2023-04-30T00:07:42.367Z,9.35
2023-04-30T00:10:11.342Z,9.73
2023-04-30T00:12:38.996Z,8.02
2023-04-30T00:15:07.232Z,7.28
2023-04-30T00:17:34.764Z,7.05
2023-04-30T00:20:02.320Z,6.72
2023-04-30T00:22:29.705Z,7.18
2023-04-30T00:24:57.203Z,6.10
2023-04-30T00:27:24.732Z,5.68
2023-04-30T00:29:52.457Z,7.10
2023-04-30T00:34:47.797Z,6.40
2023-04-30T00:37:15.461Z,5.72
2023-04-30T00:39:42.925Z,4.30
2023-04-30T00:42:10.553Z,6.28
2023-04-30T00:44:37.998Z,5.22
2023-04-30T00:47:05.457Z,5.82
2023-04-30T00:49:33.482Z,5.30
2023-04-30T00:52:01.722Z,5.05
2023-04-30T00:54:29.261Z,5.82
2023-04-30T00:56:56.870Z,4.43
2023-04-30T00:59:25.403Z,5.10
2023-04-30T01:01:53.936Z,5.30
2023-04-30T01:04:21.824Z,5.07
2023-04-30T01:06:49.774Z,5.18
2023-04-30T01:11:47.460Z,5.00
2023-04-30T01:14:28.379Z,6.43
2023-04-30T01:17:22.015Z,6.15
2023-04-30T01:19:49.946Z,6.38
2023-04-30T01:22:27.361Z,6.38
2023-04-30T01:25:22.741Z,6.00
2023-04-30T01:28:16.492Z,5.85
2023-04-30T01:30:47.577Z,6.30
2023-04-30T01:33:15.071Z,6.30
2023-04-30T01:35:56.714Z,6.00
2023-04-30T01:38:48.926Z,6.43
2023-04-30T01:41:25.384Z,5.78
2023-04-30T01:44:01.342Z,6.00
2023-04-30T01:46:32.036Z,6.05
2023-04-30T01:49:26.140Z,7.22
2023-04-30T01:52:06.814Z,5.72
2023-04-30T01:54:45.745Z,5.65
2023-04-30T01:57:24.355Z,4.95
2023-04-30T01:59:53.416Z,4.90
2023-04-30T02:02:20.922Z,4.55
2023-04-30T02:04:48.663Z,5.95
2023-04-30T02:07:33.715Z,5.53
2023-04-30T02:10:01.773Z,4.90
2023-04-30T02:12:30.354Z,5.28
2023-04-30T02:14:57.896Z,4.57
2023-04-30T02:17:25.385Z,4.75
2023-04-30T02:19:53.087Z,6.40
2023-04-30T02:24:48.205Z,4.57
2023-04-30T02:27:16.374Z,4.57
2023-04-30T02:29:43.778Z,4.28
2023-04-30T02:32:11.119Z,5.90
2023-04-30T02:34:38.659Z,5.32
2023-04-30T02:37:07.126Z,6.28
2023-04-30T02:42:01.819Z,5.72
2023-04-30T02:44:30.042Z,6.68
2023-04-30T02:46:57.479Z,5.90
2023-04-30T02:49:24.852Z,5.65
2023-04-30T02:51:53.161Z,7.10
2023-04-30T02:54:20.645Z,5.28
2023-04-30T02:56:49.705Z,4.65
2023-04-30T02:59:17.593Z,4.65
2023-04-30T03:01:45.032Z,4.72
2023-04-30T03:04:13.784Z,5.50
2023-04-30T03:06:41.250Z,4.97
2023-04-30T03:09:09.076Z,5.32
2023-04-30T03:11:37.832Z,5.18
2023-04-30T03:14:05.425Z,4.40
2023-04-30T03:19:00.488Z,4.95
2023-04-30T03:21:27.957Z,4.90
2023-04-30T03:23:55.524Z,4.88
2023-04-30T03:26:23.013Z,5.20
2023-04-30T03:28:50.774Z,4.90
2023-04-30T03:33:45.752Z,4.47
2023-04-30T03:36:13.177Z,4.88
2023-04-30T03:38:41.898Z,4.20
2023-04-30T03:41:09.278Z,4.45
2023-04-30T03:43:38.046Z,4.28
2023-04-30T03:46:05.869Z,3.95
2023-04-30T03:51:00.755Z,5.10
2023-04-30T03:53:28.261Z,4.38
2023-04-30T03:55:56.352Z,4.32
2023-04-30T03:58:24.067Z,4.28
2023-04-30T04:00:57.183Z,4.68
2023-04-30T04:03:25.164Z,4.72
2023-04-30T04:05:52.583Z,4.57
2023-04-30T04:08:20.179Z,4.07
2023-04-30T04:10:48.251Z,4.53
2023-04-30T04:13:15.980Z,4.22
2023-04-30T04:15:43.414Z,3.42
2023-04-30T04:18:11.668Z,4.72
2023-04-30T04:20:39.832Z,4.30
2023-04-30T04:23:07.477Z,3.92
2023-04-30T04:25:35.337Z,4.60
2023-04-30T04:30:30.649Z,4.65
2023-04-30T04:32:58.789Z,4.47
2023-04-30T04:35:26.245Z,3.85
2023-04-30T04:37:53.720Z,4.57
2023-04-30T04:40:21.164Z,4.10
2023-04-30T04:42:51.517Z,4.43
2023-04-30T04:45:20.686Z,5.57
2023-04-30T04:47:49.823Z,4.53
2023-04-30T04:50:18.318Z,4.53
2023-04-30T04:52:46.243Z,4.13
2023-04-30T04:57:42.594Z,3.58
2023-04-30T05:00:11.833Z,4.43
2023-04-30T05:02:39.281Z,4.38
2023-04-30T05:05:07.236Z,4.45
2023-04-30T05:07:35.438Z,4.35
2023-04-30T05:10:03.251Z,3.70
2023-04-30T05:12:31.901Z,3.47
2023-04-30T05:14:59.483Z,3.67
2023-04-30T05:17:26.965Z,3.22
2023-04-30T05:19:54.585Z,3.15
2023-04-30T05:22:22.124Z,4.70
2023-04-30T05:24:49.505Z,3.05
2023-04-30T05:29:44.570Z,2.80
2023-04-30T05:32:11.897Z,2.88
2023-04-30T05:34:39.280Z,3.17
2023-04-30T05:37:06.655Z,2.97
2023-04-30T05:39:34.299Z,3.08
2023-04-30T05:42:02.701Z,3.80
2023-04-30T05:44:33.032Z,2.35
2023-04-30T05:47:00.355Z,2.22
2023-04-30T05:49:27.790Z,2.08
2023-04-30T05:51:55.408Z,1.92
2023-04-30T05:54:23.056Z,2.08
2023-04-30T05:56:50.436Z,2.15
2023-04-30T05:59:17.771Z,2.45
2023-04-30T06:01:45.201Z,2.38
2023-04-30T06:04:12.715Z,2.10
2023-04-30T06:06:40.252Z,2.15
2023-04-30T06:09:07.895Z,2.33
2023-04-30T06:11:39.901Z,2.63
2023-04-30T06:14:10.752Z,2.17
2023-04-30T06:16:38.641Z,2.65
2023-04-30T06:21:33.234Z,3.20
2023-04-30T06:24:01.052Z,1.90
2023-04-30T06:26:31.173Z,2.50
2023-04-30T06:28:58.595Z,2.30
2023-04-30T06:31:26.563Z,2.45
2023-04-30T06:33:54.263Z,2.70
2023-04-30T06:36:21.654Z,3.47
2023-04-30T06:38:49.407Z,3.15
2023-04-30T06:41:17.073Z,2.88
2023-04-30T06:43:45.132Z,2.78
2023-04-30T06:46:12.472Z,3.05
2023-04-30T06:48:39.890Z,2.63
2023-04-30T06:51:09.881Z,2.53
2023-04-30T06:53:38.345Z,2.08
2023-04-30T06:56:06.665Z,2.42
2023-04-30T06:58:34.161Z,2.20
2023-04-30T07:01:01.846Z,2.53
2023-04-30T07:03:29.531Z,2.80
2023-04-30T07:05:57.650Z,2.58
2023-04-30T07:08:25.054Z,2.67
2023-04-30T07:10:52.593Z,2.58
2023-04-30T07:13:20.049Z,2.95
2023-04-30T07:15:47.386Z,2.08
2023-04-30T07:18:15.007Z,3.03
2023-04-30T07:20:42.730Z,2.72
2023-04-30T07:23:10.109Z,3.00
2023-04-30T07:25:37.705Z,2.55
2023-04-30T07:28:05.347Z,1.77
2023-04-30T07:30:32.795Z,2.47
2023-04-30T07:33:00.242Z,2.75
2023-04-30T07:35:27.668Z,2.80
2023-04-30T07:37:55.165Z,2.58
2023-04-30T07:40:34.816Z,2.22
2023-04-30T07:43:04.790Z,2.90
2023-04-30T07:45:34.041Z,3.25
2023-04-30T07:48:02.031Z,2.28
2023-04-30T07:50:33.925Z,2.30
2023-04-30T07:53:01.874Z,2.35
2023-04-30T07:55:29.485Z,2.25
2023-04-30T07:57:56.834Z,2.80
2023-04-30T08:00:26.535Z,2.40
2023-04-30T08:02:54.015Z,2.70
2023-04-30T08:05:21.801Z,3.13
2023-04-30T08:07:49.238Z,2.97
2023-04-30T08:10:17.881Z,1.80
2023-04-30T08:12:45.546Z,2.65
2023-04-30T08:15:13.245Z,3.08
2023-04-30T08:17:42.917Z,2.85
2023-04-30T08:20:11.025Z,2.83
2023-04-30T08:25:06.196Z,3.28
2023-04-30T08:30:01.377Z,2.13
2023-04-30T08:32:30.202Z,2.47
2023-04-30T08:34:58.038Z,2.88
2023-04-30T08:37:25.731Z,2.90
2023-04-30T08:39:53.465Z,2.28
2023-04-30T08:44:51.690Z,2.53
2023-04-30T08:47:20.903Z,2.67
2023-04-30T08:49:48.606Z,2.33
2023-04-30T08:52:16.384Z,2.58
2023-04-30T08:54:44.452Z,2.45
2023-04-30T08:57:11.930Z,2.72
2023-04-30T08:59:39.511Z,2.28
2023-04-30T09:02:07.868Z,2.95
2023-04-30T09:04:35.385Z,2.10
2023-04-30T09:09:39.216Z,2.70
2023-04-30T09:12:19.939Z,2.80
2023-04-30T09:15:06.995Z,2.60
2023-04-30T09:17:36.170Z,2.53
2023-04-30T09:20:11.950Z,2.22
2023-04-30T09:22:41.432Z,2.40
2023-04-30T09:25:10.072Z,2.50
2023-04-30T09:27:38.387Z,2.70
2023-04-30T09:30:07.660Z,2.47
2023-04-30T09:32:35.599Z,3.38
2023-04-30T09:37:39.711Z,2.30
2023-04-30T09:40:08.125Z,2.60
2023-04-30T09:42:35.970Z,2.65
2023-04-30T09:47:33.599Z,2.60
2023-04-30T09:50:01.202Z,2.85
2023-04-30T09:52:29.048Z,2.70
2023-04-30T09:54:56.676Z,2.47
2023-04-30T09:57:24.997Z,2.20
2023-04-30T09:59:54.148Z,2.40
2023-04-30T10:02:24.054Z,2.35
2023-04-30T10:04:57.021Z,2.40
2023-04-30T10:07:29.850Z,1.67
2023-04-30T10:13:27.728Z,2.53
2023-04-30T10:16:07.557Z,2.65
2023-04-30T10:18:39.510Z,2.00
2023-04-30T10:21:12.739Z,2.70
2023-04-30T10:23:43.534Z,2.15
2023-04-30T10:26:14.430Z,1.80
2023-04-30T10:28:42.557Z,2.65
2023-04-30T10:31:11.157Z,2.55
2023-04-30T10:33:41.483Z,2.08
2023-04-30T10:36:15.034Z,2.05
2023-04-30T10:38:42.696Z,2.15
2023-04-30T10:41:10.885Z,2.10
2023-04-30T10:43:38.448Z,1.92
2023-04-30T10:46:05.837Z,1.85
2023-04-30T10:48:36.059Z,1.83
2023-04-30T10:51:04.119Z,1.95
2023-04-30T10:53:32.453Z,2.70
2023-04-30T10:56:12.143Z,2.38
2023-04-30T10:58:40.579Z,1.90
2023-04-30T11:01:17.745Z,1.70
2023-04-30T11:04:24.513Z,2.55
2023-04-30T11:06:54.917Z,1.52
2023-04-30T11:09:39.801Z,1.60
2023-04-30T11:12:33.191Z,2.03
2023-04-30T11:15:18.396Z,1.70
2023-04-30T11:17:48.209Z,1.92
2023-04-30T11:20:20.593Z,1.98
2023-04-30T11:22:48.369Z,2.03
2023-04-30T11:25:20.222Z,1.80
2023-04-30T11:27:47.938Z,1.88
2023-04-30T11:30:17.805Z,1.98
2023-04-30T11:32:47.889Z,2.47
2023-04-30T11:35:19.398Z,1.70
2023-04-30T11:37:48.996Z,2.10
2023-04-30T11:40:20.062Z,1.77
2023-04-30T11:42:48.452Z,1.70
2023-04-30T11:45:17.909Z,1.60
2023-04-30T11:47:47.061Z,1.73
2023-04-30T11:50:21.416Z,2.17
2023-04-30T11:52:51.744Z,1.83
2023-04-30T11:55:21.476Z,1.88
2023-04-30T11:57:51.465Z,1.50
2023-04-30T12:00:27.807Z,1.63
2023-04-30T12:02:56.517Z,1.42
2023-04-30T12:05:26.903Z,1.35
2023-04-30T12:08:00.413Z,2.10
2023-04-30T12:10:28.090Z,1.48
2023-04-30T12:12:56.217Z,1.63
2023-04-30T12:15:28.125Z,1.60
2023-04-30T12:17:57.557Z,1.40
2023-04-30T12:20:28.468Z,1.48
2023-04-30T12:22:58.925Z,1.58
2023-04-30T12:25:29.172Z,1.60
2023-04-30T12:27:59.622Z,1.48
2023-04-30T12:30:27.701Z,1.60
2023-04-30T12:32:58.769Z,1.95
2023-04-30T12:35:29.119Z,1.05
2023-04-30T12:38:05.395Z,1.30
2023-04-30T12:40:33.788Z,1.58
2023-04-30T12:43:05.954Z,1.30
2023-04-30T12:45:54.569Z,1.80
2023-04-30T12:48:24.674Z,1.90
2023-04-30T12:50:58.587Z,1.48
2023-04-30T12:53:26.818Z,1.60
2023-04-30T12:56:12.519Z,1.23
2023-04-30T12:58:40.647Z,1.20
2023-04-30T13:01:13.249Z,1.10
2023-04-30T13:03:43.432Z,1.35
2023-04-30T13:06:11.024Z,1.45
2023-04-30T13:08:49.651Z,0.98
2023-04-30T13:11:24.963Z,1.20
2023-04-30T13:13:57.973Z,1.77
2023-04-30T13:16:25.897Z,1.15
2023-04-30T13:18:54.440Z,1.33
2023-04-30T13:21:22.163Z,1.73
2023-04-30T13:23:53.565Z,1.55
2023-04-30T13:26:23.605Z,1.63
2023-04-30T13:28:51.822Z,1.10
2023-04-30T13:33:47.362Z,1.23
2023-04-30T13:36:18.079Z,1.40
2023-04-30T13:38:45.633Z,1.35
2023-04-30T13:41:13.559Z,0.90
2023-04-30T13:43:44.861Z,1.00
2023-04-30T13:46:12.624Z,0.90
2023-04-30T13:48:40.140Z,0.90
2023-04-30T13:51:07.555Z,1.20
2023-04-30T13:53:36.812Z,1.15
2023-04-30T13:56:04.383Z,1.00
2023-04-30T13:58:33.011Z,1.35
2023-04-30T14:01:00.577Z,0.98
2023-04-30T14:03:28.219Z,1.48
2023-04-30T14:05:55.824Z,1.92
2023-04-30T14:08:23.736Z,0.88
2023-04-30T14:10:51.824Z,0.65
2023-04-30T14:13:19.967Z,0.80
2023-04-30T14:15:48.210Z,0.93
2023-04-30T14:18:15.900Z,0.85
2023-04-30T14:23:10.622Z,1.00
2023-04-30T14:25:38.392Z,1.00
2023-04-30T14:28:05.937Z,1.33
2023-04-30T14:30:33.483Z,0.80
2023-04-30T14:33:01.066Z,1.00
2023-04-30T14:35:28.812Z,1.55
2023-04-30T14:37:56.212Z,1.45
2023-04-30T14:40:23.628Z,1.67
2023-04-30T14:42:51.362Z,1.20
2023-04-30T14:45:18.877Z,1.65
2023-04-30T14:47:46.453Z,2.60
2023-04-30T14:50:14.449Z,0.85
2023-04-30T14:52:42.485Z,1.13
2023-04-30T14:55:10.143Z,1.20
2023-04-30T14:57:37.923Z,1.15
2023-04-30T15:02:34.781Z,1.10
2023-04-30T15:05:05.725Z,1.60
2023-04-30T15:07:33.364Z,1.17
2023-04-30T15:10:00.897Z,1.73
2023-04-30T15:12:28.400Z,1.63
2023-04-30T15:14:55.930Z,0.85
2023-04-30T15:17:24.207Z,1.05
2023-04-30T15:19:51.657Z,1.25
2023-04-30T15:22:19.084Z,1.00
2023-04-30T15:24:46.458Z,1.75
2023-04-30T15:27:13.959Z,1.10
2023-04-30T15:29:41.923Z,0.98
2023-04-30T15:32:09.521Z,1.30
2023-04-30T15:34:37.020Z,1.10
2023-04-30T15:37:05.276Z,0.95
2023-04-30T15:41:59.949Z,1.50
2023-04-30T15:44:27.516Z,1.38
2023-04-30T15:46:55.961Z,1.17
2023-04-30T15:49:23.417Z,1.30
2023-04-30T15:51:53.876Z,1.00
2023-04-30T15:54:21.401Z,1.27
2023-04-30T15:56:48.981Z,1.45
2023-04-30T15:59:17.689Z,2.05
2023-04-30T16:01:47.245Z,1.23
2023-04-30T16:04:14.765Z,1.75
2023-04-30T16:06:42.528Z,0.95
2023-04-30T16:14:05.059Z,1.80
2023-04-30T16:16:32.647Z,2.22
2023-04-30T16:19:02.996Z,1.50
2023-04-30T16:21:34.611Z,2.08
2023-04-30T16:24:03.303Z,2.38
2023-04-30T16:26:30.855Z,7.20
2023-04-30T16:28:58.323Z,2.78
2023-04-30T16:31:25.935Z,2.42
2023-04-30T16:33:53.799Z,1.73
2023-04-30T16:36:21.377Z,1.85
2023-04-30T16:38:48.897Z,2.30
2023-04-30T16:41:17.545Z,1.58
2023-04-30T16:43:45.920Z,1.08
2023-04-30T16:46:16.615Z,1.20
2023-04-30T16:48:44.431Z,1.95
2023-04-30T16:51:12.156Z,2.10
2023-04-30T16:53:40.163Z,1.33
2023-04-30T16:56:07.678Z,1.90
2023-04-30T16:58:35.161Z,1.33
2023-04-30T17:01:02.560Z,2.05
2023-04-30T17:03:30.915Z,1.35
2023-04-30T17:05:58.665Z,1.55
2023-04-30T17:10:53.603Z,1.33
2023-04-30T17:13:21.156Z,1.80
2023-04-30T17:15:49.033Z,2.47
2023-04-30T17:20:45.798Z,1.80
2023-04-30T17:23:13.340Z,1.40
2023-04-30T17:25:40.773Z,1.95
2023-04-30T17:28:08.406Z,2.03
2023-04-30T17:30:36.278Z,1.48
2023-04-30T17:35:31.923Z,1.52
2023-04-30T17:38:02.534Z,1.13
2023-04-30T17:40:31.624Z,1.45
2023-04-30T17:42:58.990Z,1.40
2023-04-30T17:45:31.499Z,1.10
2023-04-30T17:48:00.949Z,1.38
2023-04-30T17:50:32.186Z,1.35
2023-04-30T17:53:03.270Z,1.13
2023-04-30T17:55:32.510Z,1.38
2023-04-30T17:58:00.607Z,1.75
2023-04-30T18:00:28.133Z,1.55
2023-04-30T18:02:56.040Z,1.50
2023-04-30T18:05:23.588Z,1.67
2023-04-30T18:07:51.011Z,2.13
2023-04-30T18:11:16.990Z,2.35
2023-04-30T18:13:45.088Z,2.33
2023-04-30T18:16:14.239Z,2.95
2023-04-30T18:18:41.679Z,1.80
2023-04-30T18:21:09.333Z,2.30
2023-04-30T18:23:37.172Z,2.10
2023-04-30T18:26:05.805Z,2.10
2023-04-30T18:28:41.273Z,2.40
2023-04-30T18:31:13.277Z,2.97
2023-04-30T18:33:42.626Z,2.70
2023-04-30T18:38:39.038Z,3.58
2023-04-30T18:41:07.465Z,4.75
2023-04-30T18:43:37.267Z,7.47
2023-04-30T18:46:06.218Z,8.68
2023-04-30T18:48:34.427Z,9.25
2023-04-30T18:51:01.924Z,7.55
2023-04-30T18:53:29.498Z,6.40
2023-04-30T18:55:59.979Z,5.95
2023-04-30T18:58:27.581Z,6.28
2023-04-30T19:00:58.282Z,8.63
2023-04-30T19:03:26.920Z,5.80
2023-04-30T19:05:58.967Z,4.30
2023-04-30T19:08:26.583Z,3.35
2023-04-30T19:10:55.970Z,3.03
2023-04-30T19:13:23.839Z,2.63
2023-04-30T19:15:53.095Z,2.03
2023-04-30T19:18:33.866Z,2.88
2023-04-30T19:21:02.522Z,3.92
2023-04-30T19:23:30.861Z,3.25
2023-04-30T19:25:59.314Z,2.67
2023-04-30T19:28:27.499Z,2.85
2023-04-30T19:30:55.697Z,2.45
2023-04-30T19:33:24.758Z,2.38
2023-04-30T19:35:55.567Z,2.72
2023-04-30T19:38:23.456Z,1.67
2023-04-30T19:43:20.661Z,3.78
2023-04-30T19:45:52.059Z,4.97
2023-04-30T19:48:21.276Z,4.80
2023-04-30T19:50:50.258Z,3.40
2023-04-30T19:53:20.065Z,3.33
2023-04-30T19:55:48.443Z,3.40
2023-04-30T19:58:15.944Z,3.50
2023-04-30T20:00:47.710Z,2.42
2023-04-30T20:03:17.121Z,2.10
2023-04-30T20:05:44.919Z,2.10
2023-04-30T20:08:12.544Z,3.40
2023-04-30T20:13:09.552Z,2.70
2023-04-30T20:15:37.071Z,3.97
2023-04-30T20:18:07.557Z,6.30
2023-04-30T20:20:35.257Z,8.07
2023-04-30T20:23:17.778Z,6.07
2023-04-30T20:25:46.406Z,4.28
2023-04-30T20:28:16.153Z,4.88
2023-04-30T20:30:48.285Z,3.83
2023-04-30T20:33:15.910Z,3.50
2023-04-30T20:35:47.539Z,3.10
2023-04-30T20:38:19.624Z,3.55
2023-04-30T20:40:47.314Z,6.18
2023-04-30T20:43:15.386Z,8.13
2023-04-30T20:45:46.548Z,9.02
2023-04-30T20:48:14.163Z,8.52
2023-04-30T20:50:41.641Z,4.30
2023-04-30T20:53:11.151Z,3.67
2023-04-30T20:55:38.716Z,3.40
2023-04-30T20:58:07.044Z,3.38
2023-04-30T21:00:35.033Z,2.60
2023-04-30T21:03:02.651Z,3.60
2023-04-30T21:05:30.387Z,3.80
2023-04-30T21:08:01.585Z,3.17
2023-04-30T21:10:36.513Z,3.78
2023-04-30T21:13:05.922Z,4.43
2023-04-30T21:15:35.414Z,4.95
2023-04-30T21:18:03.213Z,3.95
2023-04-30T21:20:31.781Z,4.85
2023-04-30T21:22:59.879Z,5.25
2023-04-30T21:25:27.406Z,5.38
2023-04-30T21:27:55.815Z,6.88
2023-04-30T21:30:25.856Z,6.72
2023-04-30T21:32:58.812Z,7.82
2023-04-30T21:35:29.841Z,8.15
2023-04-30T21:37:57.305Z,12.07
2023-04-30T21:40:24.678Z,14.80
2023-04-30T21:42:53.152Z,14.88
2023-04-30T21:45:20.636Z,14.15
2023-04-30T21:47:48.673Z,14.45
2023-04-30T21:50:16.572Z,17.95
2023-04-30T21:55:12.460Z,21.60
2023-04-30T21:57:39.978Z,20.10
2023-04-30T22:00:08.754Z,20.58
2023-04-30T22:02:37.477Z,19.65
2023-04-30T22:05:06.583Z,19.02
2023-04-30T22:07:34.007Z,22.20
2023-04-30T22:10:02.933Z,20.15
2023-04-30T22:12:31.098Z,16.92
2023-04-30T22:14:59.122Z,17.27
2023-04-30T22:17:28.866Z,15.98
2023-04-30T22:19:57.737Z,13.73
2023-04-30T22:22:25.532Z,14.60
2023-04-30T22:24:53.141Z,18.60
2023-04-30T22:27:20.511Z,19.42
2023-04-30T22:29:49.854Z,21.02
2023-04-30T22:32:19.380Z,13.40
2023-04-30T22:34:46.814Z,14.57
2023-04-30T22:37:14.178Z,14.55
2023-04-30T22:39:42.500Z,16.27
2023-04-30T22:42:10.217Z,16.15
2023-04-30T22:44:37.917Z,14.70
2023-04-30T22:47:06.146Z,13.57
2023-04-30T22:49:34.471Z,14.30
2023-04-30T22:52:02.772Z,16.70
2023-04-30T22:54:30.976Z,14.52
2023-04-30T22:56:58.554Z,14.90
2023-04-30T22:59:26.049Z,14.25
2023-04-30T23:01:53.514Z,14.25
2023-04-30T23:04:21.210Z,11.63
2023-04-30T23:06:51.796Z,13.05
2023-04-30T23:09:19.724Z,13.02
2023-04-30T23:14:15.037Z,14.23
2023-04-30T23:16:42.900Z,12.10
2023-04-30T23:19:10.944Z,12.02
2023-04-30T23:21:38.691Z,10.98
2023-04-30T23:24:06.015Z,9.80
2023-04-30T23:26:33.983Z,10.65
2023-04-30T23:33:56.290Z,11.13
2023-04-30T23:36:23.636Z,11.48
2023-04-30T23:38:51.466Z,11.45
2023-04-30T23:41:19.099Z,11.60
2023-04-30T23:43:49.239Z,10.98
2023-04-30T23:46:16.848Z,10.70
2023-04-30T23:48:44.220Z,11.75
2023-04-30T23:51:14.140Z,10.30
2023-04-30T23:53:42.705Z,9.80
2023-04-30T23:56:10.038Z,10.05
2023-04-30T23:58:37.472Z,10.95
